sensor_id;sensor_type;location;lat;lon;timestamp;temperature;humidity
52127;DHT22;38120;53.176;6.614;2023-07-30T00:01:54;15.70;99.90
52127;DHT22;38120;53.176;6.614;2023-07-30T00:04:20;15.70;99.90
52127;DHT22;38120;53.176;6.614;2023-07-30T00:06:46;15.70;99.90
52127;DHT22;38120;53.176;6.614;2023-07-30T00:09:12;15.70;99.90
52127;DHT22;38120;53.176;6.614;2023-07-30T00:11:38;15.60;99.90
52127;DHT22;38120;53.176;6.614;2023-07-30T00:14:04;15.60;99.90
52127;DHT22;38120;53.176;6.614;2023-07-30T00:16:29;15.60;99.90
52127;DHT22;38120;53.176;6.614;2023-07-30T00:18:55;15.50;99.90
52127;DHT22;38120;53.176;6.614;2023-07-30T00:21:22;15.50;99.90
52127;DHT22;38120;53.176;6.614;2023-07-30T00:23:48;15.60;99.90
52127;DHT22;38120;53.176;6.614;2023-07-30T00:26:13;15.60;99.90
52127;DHT22;38120;53.176;6.614;2023-07-30T00:28:39;15.50;99.90
52127;DHT22;38120;53.176;6.614;2023-07-30T00:31:05;15.50;99.90
52127;DHT22;38120;53.176;6.614;2023-07-30T00:33:30;15.50;99.90
52127;DHT22;38120;53.176;6.614;2023-07-30T00:35:56;15.50;99.90
52127;DHT22;38120;53.176;6.614;2023-07-30T00:38:22;15.50;99.90
52127;DHT22;38120;53.176;6.614;2023-07-30T00:40:47;15.50;99.90
52127;DHT22;38120;53.176;6.614;2023-07-30T00:43:13;15.50;99.90
52127;DHT22;38120;53.176;6.614;2023-07-30T00:45:41;15.50;99.90
52127;DHT22;38120;53.176;6.614;2023-07-30T00:48:09;15.50;99.90
52127;DHT22;38120;53.176;6.614;2023-07-30T00:50:34;15.50;99.90
52127;DHT22;38120;53.176;6.614;2023-07-30T00:53:00;15.50;99.90
52127;DHT22;38120;53.176;6.614;2023-07-30T00:55:26;15.40;99.90
52127;DHT22;38120;53.176;6.614;2023-07-30T00:57:52;15.40;99.90
52127;DHT22;38120;53.176;6.614;2023-07-30T01:00:18;15.40;99.90
52127;DHT22;38120;53.176;6.614;2023-07-30T01:02:44;15.40;99.90
52127;DHT22;38120;53.176;6.614;2023-07-30T01:05:10;15.40;99.90
52127;DHT22;38120;53.176;6.614;2023-07-30T01:07:36;15.40;99.90
52127;DHT22;38120;53.176;6.614;2023-07-30T01:10:02;15.30;99.90
52127;DHT22;38120;53.176;6.614;2023-07-30T01:12:30;15.30;99.90
52127;DHT22;38120;53.176;6.614;2023-07-30T01:14:57;15.30;99.90
52127;DHT22;38120;53.176;6.614;2023-07-30T01:17:23;15.30;99.90
52127;DHT22;38120;53.176;6.614;2023-07-30T01:19:48;15.30;99.90
52127;DHT22;38120;53.176;6.614;2023-07-30T01:22:21;15.40;99.90
52127;DHT22;38120;53.176;6.614;2023-07-30T01:24:47;15.40;99.90
52127;DHT22;38120;53.176;6.614;2023-07-30T01:27:22;15.40;99.90
52127;DHT22;38120;53.176;6.614;2023-07-30T01:29:55;15.40;99.90
52127;DHT22;38120;53.176;6.614;2023-07-30T01:32:27;15.40;99.90
52127;DHT22;38120;53.176;6.614;2023-07-30T01:34:56;15.40;99.90
52127;DHT22;38120;53.176;6.614;2023-07-30T01:37:22;15.40;99.90
52127;DHT22;38120;53.176;6.614;2023-07-30T01:39:49;15.50;99.90
52127;DHT22;38120;53.176;6.614;2023-07-30T01:42:15;15.50;99.90
52127;DHT22;38120;53.176;6.614;2023-07-30T01:44:41;15.50;99.90
52127;DHT22;38120;53.176;6.614;2023-07-30T01:47:07;15.50;99.90
52127;DHT22;38120;53.176;6.614;2023-07-30T01:49:33;15.50;99.90
52127;DHT22;38120;53.176;6.614;2023-07-30T01:51:59;15.50;99.90
52127;DHT22;38120;53.176;6.614;2023-07-30T01:54:25;15.50;99.90
52127;DHT22;38120;53.176;6.614;2023-07-30T01:56:51;15.50;99.90
52127;DHT22;38120;53.176;6.614;2023-07-30T01:59:16;15.50;99.90
52127;DHT22;38120;53.176;6.614;2023-07-30T02:01:43;15.60;99.90
52127;DHT22;38120;53.176;6.614;2023-07-30T02:04:09;15.60;99.90
52127;DHT22;38120;53.176;6.614;2023-07-30T02:06:35;15.60;99.90
52127;DHT22;38120;53.176;6.614;2023-07-30T02:09:00;15.60;99.90
52127;DHT22;38120;53.176;6.614;2023-07-30T02:11:26;15.60;99.90
52127;DHT22;38120;53.176;6.614;2023-07-30T02:13:52;15.70;99.90
52127;DHT22;38120;53.176;6.614;2023-07-30T02:16:17;15.70;99.90
52127;DHT22;38120;53.176;6.614;2023-07-30T02:18:43;15.70;99.90
52127;DHT22;38120;53.176;6.614;2023-07-30T02:21:09;15.70;99.90
52127;DHT22;38120;53.176;6.614;2023-07-30T02:23:35;15.70;99.90
52127;DHT22;38120;53.176;6.614;2023-07-30T02:26:01;15.70;99.90
52127;DHT22;38120;53.176;6.614;2023-07-30T02:28:26;15.70;99.90
52127;DHT22;38120;53.176;6.614;2023-07-30T02:30:52;15.70;99.90
52127;DHT22;38120;53.176;6.614;2023-07-30T02:33:17;15.70;99.90
52127;DHT22;38120;53.176;6.614;2023-07-30T02:35:44;15.70;99.90
52127;DHT22;38120;53.176;6.614;2023-07-30T02:38:09;15.70;99.90
52127;DHT22;38120;53.176;6.614;2023-07-30T02:40:35;15.70;99.90
52127;DHT22;38120;53.176;6.614;2023-07-30T02:43:01;15.60;99.90
52127;DHT22;38120;53.176;6.614;2023-07-30T02:45:26;15.60;99.90
52127;DHT22;38120;53.176;6.614;2023-07-30T02:47:52;15.60;99.90
52127;DHT22;38120;53.176;6.614;2023-07-30T02:50:18;15.60;99.90
52127;DHT22;38120;53.176;6.614;2023-07-30T02:52:44;15.50;99.90
52127;DHT22;38120;53.176;6.614;2023-07-30T02:55:09;15.50;99.90
52127;DHT22;38120;53.176;6.614;2023-07-30T02:57:35;15.40;99.90
52127;DHT22;38120;53.176;6.614;2023-07-30T03:00:01;15.40;99.90
52127;DHT22;38120;53.176;6.614;2023-07-30T03:02:27;15.40;99.90
52127;DHT22;38120;53.176;6.614;2023-07-30T03:04:52;15.40;99.90
52127;DHT22;38120;53.176;6.614;2023-07-30T03:07:18;15.30;99.90
52127;DHT22;38120;53.176;6.614;2023-07-30T03:09:45;15.30;99.90
52127;DHT22;38120;53.176;6.614;2023-07-30T03:12:11;15.30;99.90
52127;DHT22;38120;53.176;6.614;2023-07-30T03:14:37;15.30;99.90
52127;DHT22;38120;53.176;6.614;2023-07-30T03:17:02;15.20;99.90
52127;DHT22;38120;53.176;6.614;2023-07-30T03:19:30;15.20;99.90
52127;DHT22;38120;53.176;6.614;2023-07-30T03:21:56;15.20;99.90
52127;DHT22;38120;53.176;6.614;2023-07-30T03:24:21;15.20;99.90
52127;DHT22;38120;53.176;6.614;2023-07-30T03:26:47;15.20;99.90
52127;DHT22;38120;53.176;6.614;2023-07-30T03:29:13;15.20;99.90
52127;DHT22;38120;53.176;6.614;2023-07-30T03:31:39;15.20;99.90
52127;DHT22;38120;53.176;6.614;2023-07-30T03:34:05;15.20;99.90
52127;DHT22;38120;53.176;6.614;2023-07-30T03:36:31;15.20;99.90
52127;DHT22;38120;53.176;6.614;2023-07-30T03:38:57;15.20;99.90
52127;DHT22;38120;53.176;6.614;2023-07-30T03:41:23;15.20;99.90
52127;DHT22;38120;53.176;6.614;2023-07-30T03:43:48;15.20;99.90
52127;DHT22;38120;53.176;6.614;2023-07-30T03:46:14;15.20;99.90
52127;DHT22;38120;53.176;6.614;2023-07-30T03:48:40;15.10;99.90
52127;DHT22;38120;53.176;6.614;2023-07-30T03:51:06;15.10;99.90
52127;DHT22;38120;53.176;6.614;2023-07-30T03:53:32;15.10;99.90
52127;DHT22;38120;53.176;6.614;2023-07-30T03:55:58;15.10;99.90
52127;DHT22;38120;53.176;6.614;2023-07-30T03:58:24;15.10;99.90
52127;DHT22;38120;53.176;6.614;2023-07-30T04:00:49;15.00;99.90
52127;DHT22;38120;53.176;6.614;2023-07-30T04:03:15;15.10;99.90
52127;DHT22;38120;53.176;6.614;2023-07-30T04:05:41;15.00;99.90
52127;DHT22;38120;53.176;6.614;2023-07-30T04:08:07;15.00;99.90
52127;DHT22;38120;53.176;6.614;2023-07-30T04:10:32;15.00;99.90
52127;DHT22;38120;53.176;6.614;2023-07-30T04:12:58;15.00;99.90
52127;DHT22;38120;53.176;6.614;2023-07-30T04:15:24;15.00;99.90
52127;DHT22;38120;53.176;6.614;2023-07-30T04:17:50;15.00;99.90
52127;DHT22;38120;53.176;6.614;2023-07-30T04:20:15;14.90;99.90
52127;DHT22;38120;53.176;6.614;2023-07-30T04:22:43;14.90;99.90
52127;DHT22;38120;53.176;6.614;2023-07-30T04:25:09;14.90;99.90
52127;DHT22;38120;53.176;6.614;2023-07-30T04:27:36;15.00;99.90
52127;DHT22;38120;53.176;6.614;2023-07-30T04:30:03;14.90;99.90
52127;DHT22;38120;53.176;6.614;2023-07-30T04:32:29;13.60;99.90
52127;DHT22;38120;53.176;6.614;2023-07-30T04:34:54;15.00;99.90
52127;DHT22;38120;53.176;6.614;2023-07-30T04:37:20;15.00;99.90
52127;DHT22;38120;53.176;6.614;2023-07-30T04:39:45;15.00;99.90
52127;DHT22;38120;53.176;6.614;2023-07-30T04:42:11;15.00;99.90
52127;DHT22;38120;53.176;6.614;2023-07-30T04:44:38;15.00;99.90
52127;DHT22;38120;53.176;6.614;2023-07-30T04:47:04;15.00;99.90
52127;DHT22;38120;53.176;6.614;2023-07-30T04:49:30;15.10;99.90
52127;DHT22;38120;53.176;6.614;2023-07-30T04:51:55;15.10;99.90
52127;DHT22;38120;53.176;6.614;2023-07-30T04:54:21;15.10;99.90
52127;DHT22;38120;53.176;6.614;2023-07-30T04:56:47;15.20;99.90
52127;DHT22;38120;53.176;6.614;2023-07-30T04:59:12;15.20;99.90
52127;DHT22;38120;53.176;6.614;2023-07-30T05:01:38;15.20;99.90
52127;DHT22;38120;53.176;6.614;2023-07-30T05:04:04;15.20;99.90
52127;DHT22;38120;53.176;6.614;2023-07-30T05:06:29;15.20;99.90
52127;DHT22;38120;53.176;6.614;2023-07-30T05:08:55;15.20;99.90
52127;DHT22;38120;53.176;6.614;2023-07-30T05:11:21;15.30;99.90
52127;DHT22;38120;53.176;6.614;2023-07-30T05:13:46;15.30;99.90
52127;DHT22;38120;53.176;6.614;2023-07-30T05:16:12;15.30;99.90
52127;DHT22;38120;53.176;6.614;2023-07-30T05:18:38;15.40;99.90
52127;DHT22;38120;53.176;6.614;2023-07-30T05:21:04;15.40;99.90
52127;DHT22;38120;53.176;6.614;2023-07-30T05:23:29;15.50;99.90
52127;DHT22;38120;53.176;6.614;2023-07-30T05:25:55;15.50;99.90
52127;DHT22;38120;53.176;6.614;2023-07-30T05:28:21;15.50;99.90
52127;DHT22;38120;53.176;6.614;2023-07-30T05:30:46;15.50;99.90
52127;DHT22;38120;53.176;6.614;2023-07-30T05:33:12;15.50;99.90
52127;DHT22;38120;53.176;6.614;2023-07-30T05:35:38;15.50;99.90
52127;DHT22;38120;53.176;6.614;2023-07-30T05:38:03;15.60;99.90
52127;DHT22;38120;53.176;6.614;2023-07-30T05:40:29;15.60;99.90
52127;DHT22;38120;53.176;6.614;2023-07-30T05:42:55;15.70;99.90
52127;DHT22;38120;53.176;6.614;2023-07-30T05:45:21;15.70;99.90
52127;DHT22;38120;53.176;6.614;2023-07-30T05:47:46;15.70;99.90
52127;DHT22;38120;53.176;6.614;2023-07-30T05:50:12;15.80;99.90
52127;DHT22;38120;53.176;6.614;2023-07-30T05:52:38;15.80;99.90
52127;DHT22;38120;53.176;6.614;2023-07-30T05:55:04;15.90;99.90
52127;DHT22;38120;53.176;6.614;2023-07-30T05:57:30;15.90;99.90
52127;DHT22;38120;53.176;6.614;2023-07-30T05:59:55;15.90;99.90
52127;DHT22;38120;53.176;6.614;2023-07-30T06:02:21;16.00;99.90
52127;DHT22;38120;53.176;6.614;2023-07-30T06:04:47;16.00;99.90
52127;DHT22;38120;53.176;6.614;2023-07-30T06:07:14;16.00;99.90
52127;DHT22;38120;53.176;6.614;2023-07-30T06:09:40;16.00;99.90
52127;DHT22;38120;53.176;6.614;2023-07-30T06:12:05;16.10;99.90
52127;DHT22;38120;53.176;6.614;2023-07-30T06:14:31;16.10;99.90
52127;DHT22;38120;53.176;6.614;2023-07-30T06:16:57;16.20;99.90
52127;DHT22;38120;53.176;6.614;2023-07-30T06:19:22;16.30;99.90
52127;DHT22;38120;53.176;6.614;2023-07-30T06:21:48;16.30;99.90
52127;DHT22;38120;53.176;6.614;2023-07-30T06:24:14;16.30;99.90
52127;DHT22;38120;53.176;6.614;2023-07-30T06:26:39;16.30;99.90
52127;DHT22;38120;53.176;6.614;2023-07-30T06:29:05;16.40;99.90
52127;DHT22;38120;53.176;6.614;2023-07-30T06:31:31;16.40;99.90
52127;DHT22;38120;53.176;6.614;2023-07-30T06:33:57;16.40;99.90
52127;DHT22;38120;53.176;6.614;2023-07-30T06:36:22;16.40;99.90
52127;DHT22;38120;53.176;6.614;2023-07-30T06:38:48;16.50;99.90
52127;DHT22;38120;53.176;6.614;2023-07-30T06:41:14;16.60;99.90
52127;DHT22;38120;53.176;6.614;2023-07-30T06:43:39;16.60;99.90
52127;DHT22;38120;53.176;6.614;2023-07-30T06:46:05;16.70;99.90
52127;DHT22;38120;53.176;6.614;2023-07-30T06:48:31;16.90;99.90
52127;DHT22;38120;53.176;6.614;2023-07-30T06:50:57;16.90;99.90
52127;DHT22;38120;53.176;6.614;2023-07-30T06:53:22;17.00;99.90
52127;DHT22;38120;53.176;6.614;2023-07-30T06:55:48;17.00;99.90
52127;DHT22;38120;53.176;6.614;2023-07-30T06:58:15;16.90;99.90
52127;DHT22;38120;53.176;6.614;2023-07-30T07:00:40;16.90;99.90
52127;DHT22;38120;53.176;6.614;2023-07-30T07:03:06;16.90;99.90
52127;DHT22;38120;53.176;6.614;2023-07-30T07:05:32;17.00;99.90
52127;DHT22;38120;53.176;6.614;2023-07-30T07:07:57;17.10;99.90
52127;DHT22;38120;53.176;6.614;2023-07-30T07:10:23;17.30;99.90
52127;DHT22;38120;53.176;6.614;2023-07-30T07:12:49;17.40;99.90
52127;DHT22;38120;53.176;6.614;2023-07-30T07:15:15;17.50;99.90
52127;DHT22;38120;53.176;6.614;2023-07-30T07:17:41;17.70;99.90
52127;DHT22;38120;53.176;6.614;2023-07-30T07:20:07;17.70;99.90
52127;DHT22;38120;53.176;6.614;2023-07-30T07:22:33;17.60;99.90
52127;DHT22;38120;53.176;6.614;2023-07-30T07:24:59;17.60;99.90
52127;DHT22;38120;53.176;6.614;2023-07-30T07:27:25;17.60;99.90
52127;DHT22;38120;53.176;6.614;2023-07-30T07:29:52;17.50;99.90
52127;DHT22;38120;53.176;6.614;2023-07-30T07:32:18;17.50;99.90
52127;DHT22;38120;53.176;6.614;2023-07-30T07:34:47;17.70;99.90
52127;DHT22;38120;53.176;6.614;2023-07-30T07:37:14;18.00;99.90
52127;DHT22;38120;53.176;6.614;2023-07-30T07:39:44;18.20;99.90
52127;DHT22;38120;53.176;6.614;2023-07-30T07:42:10;18.30;99.90
52127;DHT22;38120;53.176;6.614;2023-07-30T07:44:36;18.40;99.90
52127;DHT22;38120;53.176;6.614;2023-07-30T07:47:02;18.80;99.90
52127;DHT22;38120;53.176;6.614;2023-07-30T07:49:27;18.80;99.90
52127;DHT22;38120;53.176;6.614;2023-07-30T07:51:53;18.90;99.90
52127;DHT22;38120;53.176;6.614;2023-07-30T07:54:19;18.90;99.90
52127;DHT22;38120;53.176;6.614;2023-07-30T07:56:44;19.10;99.90
52127;DHT22;38120;53.176;6.614;2023-07-30T07:59:10;19.20;99.90
52127;DHT22;38120;53.176;6.614;2023-07-30T08:01:36;19.40;99.90
52127;DHT22;38120;53.176;6.614;2023-07-30T08:04:02;19.30;99.90
52127;DHT22;38120;53.176;6.614;2023-07-30T08:06:27;19.00;99.90
52127;DHT22;38120;53.176;6.614;2023-07-30T08:08:53;18.70;99.90
52127;DHT22;38120;53.176;6.614;2023-07-30T08:11:19;18.50;99.90
52127;DHT22;38120;53.176;6.614;2023-07-30T08:13:45;18.30;99.90
52127;DHT22;38120;53.176;6.614;2023-07-30T08:16:11;18.30;99.90
52127;DHT22;38120;53.176;6.614;2023-07-30T08:18:37;18.20;99.90
52127;DHT22;38120;53.176;6.614;2023-07-30T08:21:03;18.10;99.90
52127;DHT22;38120;53.176;6.614;2023-07-30T08:23:29;18.00;99.90
52127;DHT22;38120;53.176;6.614;2023-07-30T08:25:54;18.00;99.90
52127;DHT22;38120;53.176;6.614;2023-07-30T08:28:20;18.00;99.90
52127;DHT22;38120;53.176;6.614;2023-07-30T08:30:46;18.00;99.90
52127;DHT22;38120;53.176;6.614;2023-07-30T08:33:12;18.00;99.90
52127;DHT22;38120;53.176;6.614;2023-07-30T08:35:38;18.00;99.90
52127;DHT22;38120;53.176;6.614;2023-07-30T08:38:03;17.90;99.90
52127;DHT22;38120;53.176;6.614;2023-07-30T08:40:29;17.90;99.90
52127;DHT22;38120;53.176;6.614;2023-07-30T08:42:55;17.90;99.90
52127;DHT22;38120;53.176;6.614;2023-07-30T08:45:21;17.80;99.90
52127;DHT22;38120;53.176;6.614;2023-07-30T08:47:47;17.80;99.90
52127;DHT22;38120;53.176;6.614;2023-07-30T08:50:13;17.80;99.90
52127;DHT22;38120;53.176;6.614;2023-07-30T08:52:39;17.70;99.90
52127;DHT22;38120;53.176;6.614;2023-07-30T08:55:06;17.80;99.90
52127;DHT22;38120;53.176;6.614;2023-07-30T08:57:32;17.80;99.90
52127;DHT22;38120;53.176;6.614;2023-07-30T09:00:10;17.90;99.90
52127;DHT22;38120;53.176;6.614;2023-07-30T09:02:41;18.00;99.90
52127;DHT22;38120;53.176;6.614;2023-07-30T09:05:09;18.10;99.90
52127;DHT22;38120;53.176;6.614;2023-07-30T09:07:35;18.20;99.90
52127;DHT22;38120;53.176;6.614;2023-07-30T09:10:00;18.20;99.90
52127;DHT22;38120;53.176;6.614;2023-07-30T09:12:32;18.60;99.90
52127;DHT22;38120;53.176;6.614;2023-07-30T09:14:58;18.70;99.90
52127;DHT22;38120;53.176;6.614;2023-07-30T09:17:24;18.80;99.90
52127;DHT22;38120;53.176;6.614;2023-07-30T09:19:52;18.70;99.90
52127;DHT22;38120;53.176;6.614;2023-07-30T09:22:32;18.50;99.90
52127;DHT22;38120;53.176;6.614;2023-07-30T09:25:06;18.40;99.90
52127;DHT22;38120;53.176;6.614;2023-07-30T09:27:33;18.40;99.90
52127;DHT22;38120;53.176;6.614;2023-07-30T09:30:00;18.20;99.90
52127;DHT22;38120;53.176;6.614;2023-07-30T09:32:31;18.10;99.90
52127;DHT22;38120;53.176;6.614;2023-07-30T09:35:08;17.90;99.90
52127;DHT22;38120;53.176;6.614;2023-07-30T09:37:37;17.90;99.90
52127;DHT22;38120;53.176;6.614;2023-07-30T09:40:06;17.90;99.90
52127;DHT22;38120;53.176;6.614;2023-07-30T09:42:32;18.00;99.90
52127;DHT22;38120;53.176;6.614;2023-07-30T09:45:00;17.90;99.90
52127;DHT22;38120;53.176;6.614;2023-07-30T09:47:27;17.80;99.90
52127;DHT22;38120;53.176;6.614;2023-07-30T09:49:53;17.70;99.90
52127;DHT22;38120;53.176;6.614;2023-07-30T09:52:21;17.70;99.90
52127;DHT22;38120;53.176;6.614;2023-07-30T09:54:49;17.70;99.90
52127;DHT22;38120;53.176;6.614;2023-07-30T09:57:17;17.70;99.90
52127;DHT22;38120;53.176;6.614;2023-07-30T09:59:43;17.80;99.90
52127;DHT22;38120;53.176;6.614;2023-07-30T10:02:10;17.90;99.90
52127;DHT22;38120;53.176;6.614;2023-07-30T10:04:40;18.10;99.90
52127;DHT22;38120;53.176;6.614;2023-07-30T10:07:12;18.00;99.90
52127;DHT22;38120;53.176;6.614;2023-07-30T10:09:42;17.90;99.90
52127;DHT22;38120;53.176;6.614;2023-07-30T10:12:16;17.90;99.90
52127;DHT22;38120;53.176;6.614;2023-07-30T10:14:43;17.70;99.90
52127;DHT22;38120;53.176;6.614;2023-07-30T10:17:11;17.90;99.90
52127;DHT22;38120;53.176;6.614;2023-07-30T10:19:37;18.10;99.90
52127;DHT22;38120;53.176;6.614;2023-07-30T10:24:38;18.30;99.90
52127;DHT22;38120;53.176;6.614;2023-07-30T10:27:08;18.50;99.90
52127;DHT22;38120;53.176;6.614;2023-07-30T10:29:36;18.40;99.90
52127;DHT22;38120;53.176;6.614;2023-07-30T10:32:01;18.80;99.90
52127;DHT22;38120;53.176;6.614;2023-07-30T10:34:45;18.90;99.90
52127;DHT22;38120;53.176;6.614;2023-07-30T10:37:10;18.80;99.90
52127;DHT22;38120;53.176;6.614;2023-07-30T10:39:36;18.60;99.90
52127;DHT22;38120;53.176;6.614;2023-07-30T10:42:02;18.30;99.90
52127;DHT22;38120;53.176;6.614;2023-07-30T10:44:32;18.20;99.90
52127;DHT22;38120;53.176;6.614;2023-07-30T10:47:00;17.80;99.90
52127;DHT22;38120;53.176;6.614;2023-07-30T10:49:26;17.50;99.90
52127;DHT22;38120;53.176;6.614;2023-07-30T10:51:53;17.50;99.90
52127;DHT22;38120;53.176;6.614;2023-07-30T10:54:20;17.70;99.90
52127;DHT22;38120;53.176;6.614;2023-07-30T10:56:46;18.10;99.90
52127;DHT22;38120;53.176;6.614;2023-07-30T10:59:14;18.20;99.90
52127;DHT22;38120;53.176;6.614;2023-07-30T11:01:42;18.20;99.90
52127;DHT22;38120;53.176;6.614;2023-07-30T11:04:19;18.60;99.90
52127;DHT22;38120;53.176;6.614;2023-07-30T11:06:50;18.90;99.90
52127;DHT22;38120;53.176;6.614;2023-07-30T11:09:27;19.30;99.90
52127;DHT22;38120;53.176;6.614;2023-07-30T11:11:55;19.40;99.90
52127;DHT22;38120;53.176;6.614;2023-07-30T11:14:25;19.60;99.90
52127;DHT22;38120;53.176;6.614;2023-07-30T11:16:59;19.50;99.90
52127;DHT22;38120;53.176;6.614;2023-07-30T11:19:28;19.30;99.90
52127;DHT22;38120;53.176;6.614;2023-07-30T11:21:56;19.80;99.90
52127;DHT22;38120;53.176;6.614;2023-07-30T11:24:35;19.60;99.90
52127;DHT22;38120;53.176;6.614;2023-07-30T11:27:01;19.30;99.90
52127;DHT22;38120;53.176;6.614;2023-07-30T11:29:27;19.60;99.90
52127;DHT22;38120;53.176;6.614;2023-07-30T11:31:56;19.50;99.90
52127;DHT22;38120;53.176;6.614;2023-07-30T11:34:22;19.60;99.90
52127;DHT22;38120;53.176;6.614;2023-07-30T11:36:48;20.10;99.90
52127;DHT22;38120;53.176;6.614;2023-07-30T11:39:14;20.40;99.90
52127;DHT22;38120;53.176;6.614;2023-07-30T11:41:40;20.40;99.90
52127;DHT22;38120;53.176;6.614;2023-07-30T11:44:07;20.70;99.90
52127;DHT22;38120;53.176;6.614;2023-07-30T11:46:32;20.20;99.90
52127;DHT22;38120;53.176;6.614;2023-07-30T11:49:13;20.00;99.90
52127;DHT22;38120;53.176;6.614;2023-07-30T11:51:39;20.50;99.90
52127;DHT22;38120;53.176;6.614;2023-07-30T11:54:05;20.80;99.90
52127;DHT22;38120;53.176;6.614;2023-07-30T11:56:32;20.20;99.90
52127;DHT22;38120;53.176;6.614;2023-07-30T11:59:07;20.60;99.90
52127;DHT22;38120;53.176;6.614;2023-07-30T12:01:35;20.50;99.90
52127;DHT22;38120;53.176;6.614;2023-07-30T12:04:03;20.70;99.90
52127;DHT22;38120;53.176;6.614;2023-07-30T12:06:46;20.50;99.90
52127;DHT22;38120;53.176;6.614;2023-07-30T12:09:17;20.00;99.90
52127;DHT22;38120;53.176;6.614;2023-07-30T12:12:04;19.80;99.90
52127;DHT22;38120;53.176;6.614;2023-07-30T12:14:52;19.20;99.90
52127;DHT22;38120;53.176;6.614;2023-07-30T12:17:18;18.20;99.90
52127;DHT22;38120;53.176;6.614;2023-07-30T12:19:43;17.80;99.90
52127;DHT22;38120;53.176;6.614;2023-07-30T12:22:09;17.40;99.90
52127;DHT22;38120;53.176;6.614;2023-07-30T12:24:35;17.20;99.90
52127;DHT22;38120;53.176;6.614;2023-07-30T12:27:01;17.20;99.90
52127;DHT22;38120;53.176;6.614;2023-07-30T12:29:26;17.30;99.90
52127;DHT22;38120;53.176;6.614;2023-07-30T12:31:52;17.80;99.90
52127;DHT22;38120;53.176;6.614;2023-07-30T12:34:23;18.30;99.90
52127;DHT22;38120;53.176;6.614;2023-07-30T12:36:49;18.70;99.90
52127;DHT22;38120;53.176;6.614;2023-07-30T12:39:14;18.80;99.90
52127;DHT22;38120;53.176;6.614;2023-07-30T12:41:40;19.00;99.90
52127;DHT22;38120;53.176;6.614;2023-07-30T12:44:06;19.30;99.90
52127;DHT22;38120;53.176;6.614;2023-07-30T12:46:32;19.50;99.90
52127;DHT22;38120;53.176;6.614;2023-07-30T12:48:59;19.60;99.90
52127;DHT22;38120;53.176;6.614;2023-07-30T12:51:30;19.70;99.90
52127;DHT22;38120;53.176;6.614;2023-07-30T12:53:56;19.40;99.90
52127;DHT22;38120;53.176;6.614;2023-07-30T12:56:21;19.70;99.90
52127;DHT22;38120;53.176;6.614;2023-07-30T12:58:47;19.80;99.90
52127;DHT22;38120;53.176;6.614;2023-07-30T13:01:13;20.00;99.90
52127;DHT22;38120;53.176;6.614;2023-07-30T13:03:39;20.00;99.90
52127;DHT22;38120;53.176;6.614;2023-07-30T13:06:11;20.20;99.90
52127;DHT22;38120;53.176;6.614;2023-07-30T13:08:37;20.10;99.90
52127;DHT22;38120;53.176;6.614;2023-07-30T13:11:03;19.70;99.90
52127;DHT22;38120;53.176;6.614;2023-07-30T13:13:28;19.40;99.90
52127;DHT22;38120;53.176;6.614;2023-07-30T13:15:54;19.30;99.90
52127;DHT22;38120;53.176;6.614;2023-07-30T13:18:23;19.10;99.90
52127;DHT22;38120;53.176;6.614;2023-07-30T13:20:49;19.20;99.90
52127;DHT22;38120;53.176;6.614;2023-07-30T13:23:15;19.30;99.90
52127;DHT22;38120;53.176;6.614;2023-07-30T13:25:41;19.80;99.90
52127;DHT22;38120;53.176;6.614;2023-07-30T13:28:07;20.10;99.90
52127;DHT22;38120;53.176;6.614;2023-07-30T13:30:33;20.20;99.90
52127;DHT22;38120;53.176;6.614;2023-07-30T13:32:58;20.40;99.90
52127;DHT22;38120;53.176;6.614;2023-07-30T13:35:24;20.10;99.90
52127;DHT22;38120;53.176;6.614;2023-07-30T13:37:50;19.90;99.90
52127;DHT22;38120;53.176;6.614;2023-07-30T13:40:15;19.80;99.90
52127;DHT22;38120;53.176;6.614;2023-07-30T13:42:41;19.70;99.90
52127;DHT22;38120;53.176;6.614;2023-07-30T13:45:07;19.70;99.90
52127;DHT22;38120;53.176;6.614;2023-07-30T13:47:33;19.70;99.90
52127;DHT22;38120;53.176;6.614;2023-07-30T13:49:58;19.60;99.90
52127;DHT22;38120;53.176;6.614;2023-07-30T13:52:24;20.20;99.90
52127;DHT22;38120;53.176;6.614;2023-07-30T13:54:50;20.80;99.90
52127;DHT22;38120;53.176;6.614;2023-07-30T13:57:25;20.80;99.90
52127;DHT22;38120;53.176;6.614;2023-07-30T13:59:53;21.00;99.90
52127;DHT22;38120;53.176;6.614;2023-07-30T14:02:19;20.80;99.90
52127;DHT22;38120;53.176;6.614;2023-07-30T14:04:45;20.40;99.90
52127;DHT22;38120;53.176;6.614;2023-07-30T14:07:11;21.10;99.90
52127;DHT22;38120;53.176;6.614;2023-07-30T14:09:37;21.20;99.90
52127;DHT22;38120;53.176;6.614;2023-07-30T14:12:04;21.20;99.90
52127;DHT22;38120;53.176;6.614;2023-07-30T14:14:29;21.30;99.90
52127;DHT22;38120;53.176;6.614;2023-07-30T14:16:55;20.90;99.90
52127;DHT22;38120;53.176;6.614;2023-07-30T14:19:21;20.40;99.90
52127;DHT22;38120;53.176;6.614;2023-07-30T14:21:46;20.20;99.90
52127;DHT22;38120;53.176;6.614;2023-07-30T14:24:12;20.00;99.90
52127;DHT22;38120;53.176;6.614;2023-07-30T14:26:38;19.90;99.90
52127;DHT22;38120;53.176;6.614;2023-07-30T14:29:04;19.80;99.90
52127;DHT22;38120;53.176;6.614;2023-07-30T14:31:30;20.40;99.90
52127;DHT22;38120;53.176;6.614;2023-07-30T14:33:55;20.60;99.90
52127;DHT22;38120;53.176;6.614;2023-07-30T14:36:21;19.70;99.90
52127;DHT22;38120;53.176;6.614;2023-07-30T14:38:47;20.80;99.90
52127;DHT22;38120;53.176;6.614;2023-07-30T14:41:12;20.80;99.90
52127;DHT22;38120;53.176;6.614;2023-07-30T14:43:38;21.00;99.90
52127;DHT22;38120;53.176;6.614;2023-07-30T14:46:04;21.10;99.90
52127;DHT22;38120;53.176;6.614;2023-07-30T14:48:29;20.60;99.90
52127;DHT22;38120;53.176;6.614;2023-07-30T14:50:55;20.30;99.90
52127;DHT22;38120;53.176;6.614;2023-07-30T14:53:21;19.80;99.90
52127;DHT22;38120;53.176;6.614;2023-07-30T14:55:47;19.50;99.90
52127;DHT22;38120;53.176;6.614;2023-07-30T14:58:12;19.10;99.90
52127;DHT22;38120;53.176;6.614;2023-07-30T15:00:39;19.00;99.90
52127;DHT22;38120;53.176;6.614;2023-07-30T15:03:05;18.70;99.90
52127;DHT22;38120;53.176;6.614;2023-07-30T15:05:31;18.50;99.90
52127;DHT22;38120;53.176;6.614;2023-07-30T15:07:58;18.30;99.90
52127;DHT22;38120;53.176;6.614;2023-07-30T15:10:23;18.20;99.90
52127;DHT22;38120;53.176;6.614;2023-07-30T15:12:49;18.10;99.90
52127;DHT22;38120;53.176;6.614;2023-07-30T15:15:15;18.20;99.90
52127;DHT22;38120;53.176;6.614;2023-07-30T15:17:40;18.10;99.90
52127;DHT22;38120;53.176;6.614;2023-07-30T15:20:06;18.20;99.90
52127;DHT22;38120;53.176;6.614;2023-07-30T15:22:33;18.10;99.90
52127;DHT22;38120;53.176;6.614;2023-07-30T15:24:59;18.40;99.90
52127;DHT22;38120;53.176;6.614;2023-07-30T15:27:24;18.50;99.90
52127;DHT22;38120;53.176;6.614;2023-07-30T15:29:50;18.40;99.90